首页
METAR-TAF:

METAR-TAF

机场 :

Penn Yan Airport

Penn Yan, 紐約州, 美国

纬度: 42-38-35N, 经度: 077-02-58W, 海拔: 275米

当前天气观测

该预报发布于1小时和2分钟前的08:53 UTC
风速5节,风向多变
温度 9°C
湿度 71%
气压 1023 hPa
能見度: 16.1公里
多云层高于6000英尺
阴天层高于7000英尺

METAR: KPEO 010853Z AUTO VRB05KT 10SM BKN060 OVC070 09/04 A3021 RMK AO2 SLP233 T00890044 55002

时间: 05:55 (09:55 UTC)


TAF: 丢失

超过4000个机场的气象观测和天气预报(METAR&TAF报告)。

可查询的气象台以黄色和红色小点在地图上表示。

将鼠标移到小点上方,可查看气象台名称。

然后点击查看天气观测和预报。

如需切换地图:点击带黑十字的绿色按钮放大地图;点击带横线的绿色按钮缩小地图;或者点击绿色箭头查看邻近地区的地图。


METAR-TAF: